Ride Results

Kiwarrak Cup (11-10-2009)
Ride distance: 80.0 km

Outcomes - Kiwarrak Cup (11-10-2009)
Division No. of Entries Retired / DNE Completed Withdrawn Ineligible V/O Percentage Completed
HW 12 - 7 3 - 2 58.33%
MW 17 - 16 - - 1 94.12%
LW 13 - 11 - - 2 84.62%
JN 6 - 6 - - - 100.00%
Totals 48 - 40 3 - 5 83.33%
Results - Kiwarrak Cup (11-10-2009)
No. Rider Horse Place Time Leg Speeds Total
Km/Hr
H/R bpm
Heavyweight
26 Janette Nelson Dodge 1 6:03:00 13.2, 13.1 13.22 32, 36, 49 (Avg:42)
37 Phil Coleman Alnotarj Statistic 2 6:58:00 12.9, 10.3 11.48 40, 41, 44 (Avg:42)
44 Kym Hagon Diamond R Elmo 3 7:16:00 11.9, 10.2 11.01 36, 42, 43 (Avg:42)
31 Peter Strickland Rivergum Zara 4 8:10:00 10.5, 9.1 9.80 34, 37, 37 (Avg:37)
10 John Willcox Two Jays John Thomas 5 8:12:00 11.5, 8.4 9.76 41, 50, 57 (Avg:53)
49 Allan Caslick D-Lua Park Moniette 6 8:26:00 9.5, 9.4 9.49 30, 48, 50 (Avg:49)
94 Marylou Locke Ally 7 8:42:00 10.1, 8.3 9.20 35, 40, 44 (Avg:42)
4 Charles Gauci Charleville Lady Lame L2 0:00:00 14.4, 9.8 - 39, 53, 45 (Avg:49)
8 Dallas Blakely Hazeldean Shai Angel Withdrawn L1 0:00:00 - - 41, 41 (Avg:41)
36 Colin Pitstock Pasadena Silver Heritage Lame L1 0:00:00 10.3 - 31, 45 (Avg:45)
11 Christine Willcox Heaney Seafairer Withdrawn L1 0:00:00 - - 35, 45 (Avg:45)
48 Neil Clarkson Espirit Sherwood Withdrawn P/R 0:00:00 - - 33
Middleweight
25 Jennifer Caslick Tarrangower Gameel Ashquar 1 4:34:00 21.2, 14.9 17.52 40, 35, 47 (Avg:41)
13 Tracey Morley Summit Park Alborak 2 6:03:00 13.2, 13.1 13.22 32, 42, 50 (Avg:46)
7 Carol Major Major Luke 3 6:17:00 14.3, 11.4 12.73 34, 38, 47 (Avg:42)
16 Jo Barsby Patria Sharm 4 6:22:00 12.7, 12.3 12.57 38, 44, 51 (Avg:47)
17 David Urquhart Manana Gaylord 4 6:22:00 12.7, 12.3 12.57 33, 43, 36 (Avg:39)
15 Brad Dillon Banfield Paris 6 6:50:00 12.8, 10.7 11.71 30, 46, 51 (Avg:48)
6 Peter Kelly Girilambone Haizib 7 7:11:00 12.6, 9.9 11.14 38, 39, 43 (Avg:41)
5 Thomas Hermann Kurrajong Sar Shimba 8 7:38:00 12.1, 9.2 10.48 32, 43, 42 (Avg:42)
47 Marina Adair Tranquility Tango 9 7:42:00 10.7, 10.0 10.39 42, 40, 44 (Avg:42)
28 Dean Walkom Santa Pasa Zaraq 9 7:42:00 12.4, 8.9 10.39 35, 41, 53 (Avg:47)
30 Raymond Griffiths Hazeldean Sahara 11 8:10:00 10.5, 9.1 9.80 40, 35, 44 (Avg:39)
19 Linda Henley Rebroff Moonshadow 12 8:18:00 9.8, 9.4 9.64 40, 39, 42 (Avg:40)
21 Katrina Bodewes Rachem Heart 'N' Soul 13 8:34:00 9.7, 8.9 9.34 31, 42, 44 (Avg:43)
2 Renee Kirk Garnee Seduction 14 8:39:00 9.7, 8.7 9.25 49, 40, 55 (Avg:47)
3 Allison Knihinicki A'Landell Corvet 14 8:39:00 9.8, 8.7 9.25 35, 47, 53 (Avg:50)
42 Bob Locke Nyora Legacy 16 8:42:00 10.1, 8.3 9.20 31, 34, 46 (Avg:40)
29 Annette Gifford Porcelyn Bey Lame L2 0:00:00 15.9, 10.0 - 38, 49, 60 (Avg:54)
Lightweight
14 Leanne Hook Warragill Wenokah Dee 1 6:03:00 13.2, 13.1 13.22 34, 37, 53 (Avg:45)
51 Lynn Coles Pinedene Robbie 2 6:17:00 14.1, 11.5 12.73 41, 40, 42 (Avg:41)
1 Abby McMurrich Tannamara Reimahni 3 6:21:00 13.1, 12.0 12.60 38, 49, 44 (Avg:46)
18 Lyn Dillon Ebonglen Holmegaard 4 6:50:00 12.8, 10.7 11.71 34, 43, 43 (Avg:43)
33 Sue Todd PPP Kool Pashin 4 6:50:00 14.4, 9.8 11.71 38, 44, 58 (Avg:51)
38 Ros Ryan Rainbows Reach Scout 6 6:58:00 12.9, 10.3 11.48 31, 35, 42 (Avg:38)
24 Megan Matters Duray Djzulu 7 7:11:00 10.9, 11.3 11.14 40, 46, 57 (Avg:51)
27 Antonia Somerville Allyndah Dezynah Vogue 8 8:18:00 9.8, 9.4 9.64 42, 41, 54 (Avg:47)
46 Frank Flissinger Ranjen Krystal Cascade 9 8:19:00 11.6, 8.1 9.62 39, 50, 49 (Avg:49)
50 Angela Hawks A'Landell Rifle 10 8:30:00 10.1, 8.7 9.41 37, 50, 45 (Avg:47)
34 Eileen Rawlinson Monkey Mountain Jim 10 8:30:00 10.3, 8.6 9.41 35, 38, 42 (Avg:40)
20 Kirsty Owen Woodbournes Gift Lame L2 0:00:00 22.0, 17.6 - 33, 41, 43 (Avg:42)
22 Karen Anderson Diva Lame L1 0:00:00 9.7 - 37, 40 (Avg:40)
Junior
9 Shannen Thorsby Dan 1 4:33:00 21.2, 14.9 17.58 31, 42, 46 (Avg:44)
35 Allix Jones Nioka Park Vain 2 5:17:00 15.9, 14.3 15.14 42, 48, 54 (Avg:51)
45 Jasmine Shields Woodbourne Betty 2 5:17:00 22.0, 11.5 15.14 24, 55, 50 (Avg:52)
32 Sophie Babic Oak-Glen Isis 4 8:10:00 10.5, 9.1 9.80 32, 42, 39 (Avg:40)
12 Ronnie Thomson Ringarah Malik 5 8:12:00 11.6, 8.3 9.76 37, 40, 51 (Avg:45)
23 Mia Bodewes Leechdale Golden Jackpot 6 8:34:00 9.7, 8.9 9.34 48, 53, 60 (Avg:56)